• Join FlightAware (Why Join?)
  • Login
  • US Flag 
07:08AM EDT


 

Airport Tracker/Info


-or-


 

Live Flight TrackerFlight Track Log ✈ JBU1329 ✈ 02-Jun-2013 ✈ KBOS - KBWI

Flight Track Log - Related Links

Times and Time Zones

All times are in EDT time to prevent confusion due to time zone crossing. See the JBU1329 flight status page for this flight to view local times or setup timezone preferences in your user account.

Time Position Orientation Groundspeed Altitude Reporting Facility
EDT Latitude Longitude Course Direction KTS MPH feet Rate Location/Type
09:18AM 42.3500 -71.0167 262° West 148 170 700  Level KA90
09:19AM 42.3167 -70.9833 144° Southeast 180 207 2,400 1,980 Climbing KA90
09:20AM 42.3167 -70.8833 90° East 268 308 4,900 2,520 Climbing KA90
09:21AM 42.3662 -70.7299 172° South  Level FlightAware Approximate
09:21AM 42.3286 -70.8253 74° East 307 353 6,200  Level Boston Center
09:22AM 42.2759 -70.7528 228° Southwest  Level FlightAware Approximate
09:22AM 42.3128 -70.7414 104° East 322 371 9,200  Level Boston Center
09:23AM 42.2137 -70.8626 240° Southwest  Level FlightAware Approximate
09:23AM 42.2372 -70.7239 170° South 272 313 11,700  Level Boston Center
09:24AM 42.1810 -70.9903 262° West  Level FlightAware Approximate
09:24AM 42.1781 -70.8039 225° Southwest 229 264 13,600  Level Boston Center
09:25AM 42.1633 -70.9333 261° West 282 325 15,800 2,100 Climbing Boston Center
09:26AM 42.1481 -71.0567 261° West 354 407 17,800 1,800 Climbing Boston Center
09:27AM 42.1311 -71.2167 262° West 381 438 19,800 1,860 Climbing Boston Center
09:28AM 42.1100 -71.3933 261° West 395 455 22,000 1,740 Climbing Boston Center
09:29AM 42.0925 -71.5419 261° West 400 460 23,300 1,260 Climbing Boston Center
09:30AM 42.0667 -71.6961 257° West 413 475 24,600 1,260 Climbing Boston Center
09:31AM 42.0489 -71.8586 262° West 435 501 25,900 1,260 Climbing Boston Center
09:32AM 42.0267 -72.0264 260° West 450 518 27,200 1,200 Climbing Boston Center
09:33AM 42.0061 -72.1914 261° West 455 524 28,300 1,380 Climbing Boston Center
09:34AM 41.9836 -72.3592 260° West 455 524 30,000 1,440 Climbing Boston Center
09:35AM 41.9606 -72.5239 259° West 455 524 31,200 900 Climbing Boston Center
09:36AM 41.9353 -72.6828 258° West 449 517 32,000 360 Climbing Boston Center
09:37AM 41.8392 -72.8275 228° Southwest 422 486 32,000  Level Boston Center
09:38AM 41.7511 -72.9494 226° Southwest 446 513 32,000  Level Boston Center
09:39AM 41.6650 -73.0653 225° Southwest 446 513 32,000  Level Boston Center
09:40AM 41.5811 -73.1839 227° Southwest 446 513 32,000  Level Boston Center
09:43AM 41.3961 -73.4289 225° Southwest 425 489 32,000  Level New York Center
09:44AM 41.3103 -73.5444 225° Southwest 430 495 32,000  Level New York Center
09:45AM 41.2322 -73.6708 231° Southwest 436 502 32,000  Level New York Center
09:46AM 41.1561 -73.7969 231° Southwest 442 509 32,000  Level New York Center
09:47AM 41.0778 -73.9256 231° Southwest 447 514 32,000  Level New York Center
09:48AM 41.0036 -74.0514 232° Southwest 442 509 32,000 -180 Level New York Center
09:49AM 40.9292 -74.1767 232° Southwest 442 509 31,700 -1,200 Descending New York Center
09:50AM 40.8439 -74.3122 230° Southwest 442 509 29,600 -1,920 Descending New York Center
09:51AM 40.7672 -74.4397 232° Southwest 442 509 28,000 -840 Descending New York Center
09:52AM 40.6903 -74.5644 231° Southwest 447 514 28,000  Level New York Center
09:53AM 40.6108 -74.6967 232° Southwest 452 520 28,000  Level New York Center
09:54AM 40.5278 -74.8119 227° Southwest 458 527 28,000 -120 Level New York Center
09:55AM 40.4444 -74.9325 228° Southwest 453 521 27,800 -1,020 Descending New York Center
09:56AM 40.3631 -75.0503 228° Southwest 453 521 26,000 -1,920 Descending New York Center
09:57AM 40.2797 -75.1675 227° Southwest 453 521 24,100 -1,920 Descending New York Center
09:58AM 40.2047 -75.2769 228° Southwest 441 507 22,200 -1,920 Descending New York Center
09:59AM 40.1364 -75.3731 227° Southwest 416 479 20,300 -1,620 Descending New York Center
10:00AM 40.0528 -75.4842 226° Southwest 405 466 19,000 -660 Descending New York Center
10:01AM 39.9886 -75.5744 227° Southwest 389 448 19,000 -660 Level New York Center
10:02AM 39.9133 -75.6803 227° Southwest 382 440 17,800 -1,440 Descending New York Center
10:03AM 39.8567 -75.7900 236° Southwest 372 428 16,200 -840 Descending New York Center
10:04AM 39.8089 -75.8811 236° Southwest 367 422 16,100 -60 Descending New York Center
10:05AM 39.7494 -75.9983 237° Southwest 356 410 16,100 -360 Level New York Center
10:06AM 39.6500 -76.1833 235° Southwest 297 342 15,200 -1,020 Descending Potomac TRACON
10:07AM 39.6000 -76.2667 232° Southwest 290 334 13,300 -1,860 Descending Potomac TRACON
10:09AM 39.5500 -76.3500 232° Southwest 282 325 11,300 -1,800 Descending Potomac TRACON
10:09AM 39.5333 -76.4333 255° West 278 320 9,800 -1,740 Descending Potomac TRACON
10:10AM 39.4667 -76.4833 210° Southwest 281 323 8,100 -1,500 Descending Potomac TRACON
10:11AM 39.4000 -76.4500 159° South 279 321 6,800 -1,200 Descending Potomac TRACON
10:12AM 39.3167 -76.4333 171° South 284 327 5,800 -1,320 Descending Potomac TRACON
10:13AM 39.2500 -76.4500 191° South 270 311 4,300 -1,500 Descending Potomac TRACON
10:14AM 39.1833 -76.4833 201° Southwest 259 298 3,000 -900 Descending Potomac TRACON
10:15AM 39.1333 -76.5333 218° Southwest 213 245 2,500 -660 Descending Potomac TRACON
10:16AM 39.1000 -76.5667 218° Southwest 183 211 1,800 -720 Descending Potomac TRACON
10:17AM 39.1167 -76.6167 293° West 169 194 1,300 -600 Descending Potomac TRACON